createdAt,value
2022-10-07T00:04:44.013Z,1012.05
2022-10-07T00:09:43.913Z,1012.03
2022-10-07T00:14:43.875Z,1011.99
2022-10-07T00:19:43.939Z,1011.91
2022-10-07T00:24:43.757Z,1011.88
2022-10-07T00:29:44.878Z,1011.88
2022-10-07T00:34:43.781Z,1011.82
2022-10-07T00:39:43.721Z,1011.78
2022-10-07T00:44:43.659Z,1011.65
2022-10-07T00:49:43.495Z,1011.66
2022-10-07T00:54:43.430Z,1011.61
2022-10-07T00:59:43.385Z,1011.57
2022-10-07T01:04:45.374Z,1011.49
2022-10-07T01:09:43.373Z,1011.43
2022-10-07T01:14:43.226Z,1011.39
2022-10-07T01:19:43.242Z,1011.34
2022-10-07T01:24:43.203Z,1011.26
2022-10-07T01:29:43.162Z,1011.27
2022-10-07T01:34:43.148Z,1011.18
2022-10-07T01:39:42.964Z,1011.06
2022-10-07T01:44:42.870Z,1011.04
2022-10-07T01:49:42.821Z,1010.93
2022-10-07T01:54:42.768Z,1010.93
2022-10-07T01:59:42.769Z,1010.88
2022-10-07T02:04:42.695Z,1010.88
2022-10-07T02:09:42.787Z,1010.78
2022-10-07T02:14:42.684Z,1010.75
2022-10-07T02:19:44.596Z,1010.66
2022-10-07T02:24:42.602Z,1010.66
2022-10-07T02:29:42.515Z,1010.63
2022-10-07T02:34:42.345Z,1010.59
2022-10-07T02:39:45.778Z,1010.51
2022-10-07T02:44:42.248Z,1010.46
2022-10-07T02:49:42.179Z,1010.42
2022-10-07T02:54:42.131Z,1010.41
2022-10-07T02:59:42.100Z,1010.31
2022-10-07T03:04:42.065Z,1010.23
2022-10-07T03:09:42.161Z,1010.09
2022-10-07T03:14:42.059Z,1010.08
2022-10-07T03:19:41.988Z,1010.07
2022-10-07T03:24:41.964Z,1010.04
2022-10-07T03:29:41.915Z,1009.99
2022-10-07T03:38:38.809Z,1009.97
2022-10-07T03:43:38.771Z,1009.99
2022-10-07T03:48:38.677Z,1009.91
2022-10-07T03:53:38.648Z,1009.92
2022-10-07T03:58:38.657Z,1009.91
2022-10-07T04:03:38.557Z,1009.91
2022-10-07T04:08:38.620Z,1009.81
2022-10-07T04:13:38.602Z,1009.77
2022-10-07T04:18:38.489Z,1009.79
2022-10-07T04:23:38.478Z,1009.75
2022-10-07T04:28:38.526Z,1009.69
2022-10-07T04:33:38.359Z,1009.70
2022-10-07T04:38:38.141Z,1009.68
2022-10-07T04:43:38.097Z,1009.62
2022-10-07T04:48:38.038Z,1009.56
2022-10-07T04:53:38.037Z,1009.54
2022-10-07T04:58:37.997Z,1009.50
2022-10-07T05:03:38.062Z,1009.49
2022-10-07T05:08:37.953Z,1009.40
2022-10-07T05:13:38.805Z,1009.37
2022-10-07T05:18:37.905Z,1009.34
2022-10-07T05:23:38.797Z,1009.34
2022-10-07T05:28:37.761Z,1009.30
2022-10-07T05:33:37.531Z,1009.24
2022-10-07T05:38:37.511Z,1009.24
2022-10-07T05:43:37.503Z,1009.23
2022-10-07T05:48:39.448Z,1009.13
2022-10-07T05:53:37.390Z,1009.11
2022-10-07T05:58:37.362Z,1009.08
2022-10-07T06:03:37.260Z,1009.10
2022-10-07T06:08:37.196Z,1009.05
2022-10-07T06:13:37.237Z,1009.03
2022-10-07T06:18:37.082Z,1009.02
2022-10-07T06:23:36.992Z,1009.00
2022-10-07T06:28:37.184Z,1009.05
2022-10-07T06:33:36.910Z,1008.99
2022-10-07T06:38:36.816Z,1009.00
2022-10-07T06:43:36.805Z,1009.00
2022-10-07T06:48:36.721Z,1008.94
2022-10-07T06:53:36.747Z,1008.98
2022-10-07T06:58:36.714Z,1008.94
2022-10-07T07:03:38.557Z,1008.98
2022-10-07T07:08:36.588Z,1009.02
2022-10-07T07:13:36.485Z,1009.01
2022-10-07T07:18:36.445Z,1009.06
2022-10-07T07:23:36.394Z,1008.96
2022-10-07T07:28:36.337Z,1008.96
2022-10-07T07:33:36.263Z,1008.88
2022-10-07T07:38:36.190Z,1008.90
2022-10-07T07:43:36.154Z,1008.88
2022-10-07T07:48:36.119Z,1008.83
2022-10-07T07:53:36.045Z,1008.81
2022-10-07T07:58:36.011Z,1008.81
2022-10-07T08:03:35.946Z,1008.81
2022-10-07T08:08:35.876Z,1008.63
2022-10-07T08:13:35.870Z,1008.63
2022-10-07T08:18:35.742Z,1008.69
2022-10-07T08:23:35.821Z,1008.58
2022-10-07T08:28:35.876Z,1008.49
2022-10-07T08:33:35.624Z,1008.43
2022-10-07T08:38:35.576Z,1008.46
2022-10-07T08:43:35.806Z,1008.38
2022-10-07T08:48:35.503Z,1008.30
2022-10-07T08:53:35.509Z,1008.27
2022-10-07T08:58:35.370Z,1008.14
2022-10-07T09:03:35.386Z,1008.08
2022-10-07T09:08:35.424Z,1008.00
2022-10-07T09:13:35.286Z,1008.00
2022-10-07T09:18:36.388Z,1007.91
2022-10-07T09:23:35.109Z,1007.87
2022-10-07T09:28:36.389Z,1007.76
2022-10-07T09:35:11.401Z,1007.68
2022-10-07T09:40:11.354Z,1007.61
2022-10-07T09:45:12.459Z,1007.54
2022-10-07T09:50:11.319Z,1007.54
2022-10-07T09:55:11.271Z,1007.48
2022-10-07T10:00:11.166Z,1007.46
2022-10-07T10:05:11.116Z,1007.35
2022-10-07T10:10:11.031Z,1007.34
2022-10-07T10:15:11.152Z,1007.32
2022-10-07T10:20:11.075Z,1007.21
2022-10-07T10:25:10.907Z,1007.11
2022-10-07T10:30:10.837Z,1007.06
2022-10-07T10:35:10.789Z,1006.93
2022-10-07T10:40:10.865Z,1006.91
2022-10-07T10:45:10.752Z,1006.71
2022-10-07T10:50:10.690Z,1006.63
2022-10-07T10:55:10.661Z,1006.59
2022-10-07T11:00:10.513Z,1006.48
2022-10-07T11:05:10.422Z,1006.43
2022-10-07T11:10:10.385Z,1006.33
2022-10-07T11:15:10.313Z,1006.23
2022-10-07T11:20:10.417Z,1006.18
2022-10-07T11:25:10.230Z,1006.00
2022-10-07T11:30:10.248Z,1005.95
2022-10-07T11:35:10.146Z,1005.81
2022-10-07T11:40:10.122Z,1005.77
2022-10-07T11:45:10.068Z,1005.67
2022-10-07T11:50:09.953Z,1005.65
2022-10-07T11:55:09.997Z,1005.48
2022-10-07T12:00:09.982Z,1005.35
2022-10-07T12:05:09.915Z,1005.23
2022-10-07T12:10:09.799Z,1005.03
2022-10-07T12:15:09.814Z,1004.92
2022-10-07T12:20:09.776Z,1004.84
2022-10-07T12:25:11.278Z,1004.82
2022-10-07T12:30:09.592Z,1004.81
2022-10-07T12:35:09.478Z,1004.67
2022-10-07T12:40:09.385Z,1004.72
2022-10-07T12:45:09.387Z,1004.58
2022-10-07T12:50:09.283Z,1004.54
2022-10-07T12:55:09.240Z,1004.42
2022-10-07T13:00:09.177Z,1004.36
2022-10-07T13:05:09.123Z,1004.28
2022-10-07T13:10:09.085Z,1004.22
2022-10-07T13:15:09.025Z,1004.11
2022-10-07T13:20:09.007Z,1004.01
2022-10-07T13:25:08.882Z,1003.96
2022-10-07T13:30:08.952Z,1003.99
2022-10-07T13:35:08.802Z,1003.89
2022-10-07T13:40:08.840Z,1003.85
2022-10-07T13:45:08.769Z,1003.81
2022-10-07T13:50:08.723Z,1003.76
2022-10-07T13:55:08.635Z,1003.64
2022-10-07T14:00:08.598Z,1003.56
2022-10-07T14:05:08.503Z,1003.51
2022-10-07T14:10:09.485Z,1003.35
2022-10-07T14:15:08.421Z,1003.37
2022-10-07T14:20:08.297Z,1003.30
2022-10-07T14:25:08.320Z,1003.27
2022-10-07T14:30:08.289Z,1003.27
2022-10-07T14:35:08.228Z,1003.19
2022-10-07T14:40:08.130Z,1003.16
2022-10-07T14:45:08.097Z,1003.07
2022-10-07T14:50:08.259Z,1003.02
2022-10-07T14:55:08.060Z,1003.07
2022-10-07T15:00:08.011Z,1003.05
2022-10-07T15:05:07.990Z,1002.96
2022-10-07T15:10:07.863Z,1002.92
2022-10-07T15:15:07.800Z,1002.88
2022-10-07T15:20:07.698Z,1002.82
2022-10-07T15:25:07.591Z,1002.72
2022-10-07T15:30:07.589Z,1002.65
2022-10-07T15:36:41.622Z,1002.58
2022-10-07T15:41:41.657Z,1002.47
2022-10-07T15:46:41.635Z,1002.45
2022-10-07T15:51:41.522Z,1002.43
2022-10-07T15:56:41.428Z,1002.41
2022-10-07T16:01:41.410Z,1002.33
2022-10-07T16:06:41.293Z,1002.35
2022-10-07T16:11:41.243Z,1002.35
2022-10-07T16:16:41.253Z,1002.27
2022-10-07T16:21:41.226Z,1002.24
2022-10-07T16:26:41.127Z,1002.27
2022-10-07T16:31:41.214Z,1002.22
2022-10-07T16:36:45.332Z,1002.24
2022-10-07T16:41:40.964Z,1002.22
2022-10-07T16:46:40.926Z,1002.27
2022-10-07T16:51:40.843Z,1002.16
2022-10-07T16:56:40.745Z,1002.17
2022-10-07T17:01:40.815Z,1002.20
2022-10-07T17:06:40.715Z,1002.22
2022-10-07T17:11:40.638Z,1002.25
2022-10-07T17:16:40.622Z,1002.25
2022-10-07T17:21:40.598Z,1002.28
2022-10-07T17:26:40.491Z,1002.33
2022-10-07T17:31:40.493Z,1002.32
2022-10-07T17:36:41.414Z,1002.35
2022-10-07T17:41:40.240Z,1002.31
2022-10-07T17:46:40.428Z,1002.33
2022-10-07T17:51:40.264Z,1002.36
2022-10-07T17:56:40.159Z,1002.36
2022-10-07T18:01:40.096Z,1002.32
2022-10-07T18:06:39.973Z,1002.36
2022-10-07T18:11:39.983Z,1002.41
2022-10-07T18:16:40.009Z,1002.41
2022-10-07T18:21:39.839Z,1002.38
2022-10-07T18:26:39.784Z,1002.40
2022-10-07T18:31:39.828Z,1002.33
2022-10-07T18:36:39.742Z,1002.29
2022-10-07T18:41:39.701Z,1002.24
2022-10-07T18:46:39.616Z,1002.19
2022-10-07T18:51:39.541Z,1002.20
2022-10-07T18:56:41.598Z,1002.23
2022-10-07T19:01:39.511Z,1002.20
2022-10-07T19:06:39.399Z,1002.15
2022-10-07T19:11:39.348Z,1002.14
2022-10-07T19:16:39.313Z,1002.22
2022-10-07T19:21:39.348Z,1002.11
2022-10-07T19:26:39.274Z,1002.12
2022-10-07T19:31:39.082Z,1002.24
2022-10-07T19:36:39.027Z,1002.16
2022-10-07T19:41:39.045Z,1002.13
2022-10-07T19:46:40.103Z,1002.09
2022-10-07T19:51:38.822Z,1002.09
2022-10-07T19:56:38.832Z,1002.10
2022-10-07T20:01:38.849Z,1002.11
2022-10-07T20:06:38.704Z,1002.09
2022-10-07T20:11:38.619Z,1002.08
2022-10-07T20:16:38.622Z,1002.10
2022-10-07T20:21:38.469Z,1002.07
2022-10-07T20:26:38.480Z,1002.06
2022-10-07T20:31:38.493Z,1002.03
2022-10-07T20:36:38.338Z,1002.05
2022-10-07T20:41:38.315Z,1002.05
2022-10-07T20:46:38.289Z,1002.05
2022-10-07T20:51:38.290Z,1002.11
2022-10-07T20:56:38.216Z,1002.04
2022-10-07T21:01:38.263Z,1002.06
2022-10-07T21:06:38.083Z,1002.12
2022-10-07T21:11:37.931Z,1002.05
2022-10-07T21:16:37.930Z,1002.06
2022-10-07T21:21:37.837Z,1002.04
2022-10-07T21:26:38.845Z,1001.90
2022-10-07T21:31:37.861Z,1001.90
2022-10-07T21:36:37.948Z,1001.83
2022-10-07T21:41:37.897Z,1001.80
2022-10-07T21:46:37.718Z,1001.74
2022-10-07T21:51:37.696Z,1001.66
2022-10-07T21:56:37.500Z,1001.70
2022-10-07T22:01:37.592Z,1001.64
2022-10-07T22:06:37.382Z,1001.68
2022-10-07T22:11:37.342Z,1001.61
2022-10-07T22:16:37.264Z,1001.63
2022-10-07T22:21:42.677Z,1001.57
2022-10-07T22:26:37.233Z,1001.50
2022-10-07T22:31:37.308Z,1001.39
2022-10-07T22:36:37.079Z,1001.42
2022-10-07T22:41:36.953Z,1001.37
2022-10-07T22:46:37.126Z,1001.36
2022-10-07T22:51:36.934Z,1001.35
2022-10-07T22:56:36.913Z,1001.38
2022-10-07T23:01:36.803Z,1001.35
2022-10-07T23:06:36.731Z,1001.28
2022-10-07T23:11:36.670Z,1001.21
2022-10-07T23:16:37.700Z,1001.19
2022-10-07T23:21:38.722Z,1001.20
2022-10-07T23:26:36.656Z,1001.18
2022-10-07T23:31:40.665Z,1001.09
2022-10-07T23:36:38.660Z,1001.05
2022-10-07T23:41:36.366Z,1001.03
2022-10-07T23:46:36.560Z,1000.99
2022-10-07T23:51:36.205Z,1001.00
2022-10-07T23:56:36.185Z,1000.95
